sensor_id;sensor_type;location;lat;lon;timestamp;P1;durP1;ratioP1;P2;durP2;ratioP2
45366;SDS011;31100;55.848;37.636;2023-03-08T00:01:18;20.30;;;10.82;;
45366;SDS011;31100;55.848;37.636;2023-03-08T00:03:46;21.33;;;10.50;;
45366;SDS011;31100;55.848;37.636;2023-03-08T00:06:15;19.15;;;10.80;;
45366;SDS011;31100;55.848;37.636;2023-03-08T00:08:41;16.95;;;10.15;;
45366;SDS011;31100;55.848;37.636;2023-03-08T00:11:07;20.73;;;9.95;;
45366;SDS011;31100;55.848;37.636;2023-03-08T00:13:33;19.85;;;10.13;;
45366;SDS011;31100;55.848;37.636;2023-03-08T00:16:00;21.65;;;10.85;;
45366;SDS011;31100;55.848;37.636;2023-03-08T00:18:27;20.30;;;11.20;;
45366;SDS011;31100;55.848;37.636;2023-03-08T00:20:59;17.95;;;9.73;;
45366;SDS011;31100;55.848;37.636;2023-03-08T00:23:25;19.25;;;11.43;;
45366;SDS011;31100;55.848;37.636;2023-03-08T00:25:51;19.63;;;10.75;;
45366;SDS011;31100;55.848;37.636;2023-03-08T00:28:17;18.45;;;10.65;;
45366;SDS011;31100;55.848;37.636;2023-03-08T00:30:42;19.90;;;10.52;;
45366;SDS011;31100;55.848;37.636;2023-03-08T00:33:08;20.77;;;12.05;;
45366;SDS011;31100;55.848;37.636;2023-03-08T00:35:33;20.13;;;11.20;;
45366;SDS011;31100;55.848;37.636;2023-03-08T00:37:58;19.25;;;11.25;;
45366;SDS011;31100;55.848;37.636;2023-03-08T00:40:24;18.55;;;11.00;;
45366;SDS011;31100;55.848;37.636;2023-03-08T00:42:49;20.95;;;10.82;;
45366;SDS011;31100;55.848;37.636;2023-03-08T00:45:15;19.42;;;10.60;;
45366;SDS011;31100;55.848;37.636;2023-03-08T00:47:40;19.58;;;10.90;;
45366;SDS011;31100;55.848;37.636;2023-03-08T00:50:06;19.25;;;10.63;;
45366;SDS011;31100;55.848;37.636;2023-03-08T00:52:32;20.58;;;10.65;;
45366;SDS011;31100;55.848;37.636;2023-03-08T00:54:58;26.02;;;12.18;;
45366;SDS011;31100;55.848;37.636;2023-03-08T00:57:23;22.83;;;11.40;;
45366;SDS011;31100;55.848;37.636;2023-03-08T00:59:48;20.23;;;11.63;;
45366;SDS011;31100;55.848;37.636;2023-03-08T01:02:14;21.70;;;11.68;;
45366;SDS011;31100;55.848;37.636;2023-03-08T01:04:39;22.63;;;10.85;;
45366;SDS011;31100;55.848;37.636;2023-03-08T01:07:05;21.00;;;11.02;;
45366;SDS011;31100;55.848;37.636;2023-03-08T01:09:30;21.30;;;11.60;;
45366;SDS011;31100;55.848;37.636;2023-03-08T01:11:56;19.48;;;11.73;;
45366;SDS011;31100;55.848;37.636;2023-03-08T01:14:21;19.95;;;12.07;;
45366;SDS011;31100;55.848;37.636;2023-03-08T01:16:47;23.52;;;12.38;;
45366;SDS011;31100;55.848;37.636;2023-03-08T01:19:12;25.33;;;12.02;;
45366;SDS011;31100;55.848;37.636;2023-03-08T01:21:38;24.70;;;12.40;;
45366;SDS011;31100;55.848;37.636;2023-03-08T01:24:03;19.98;;;11.88;;
45366;SDS011;31100;55.848;37.636;2023-03-08T01:26:29;25.85;;;12.32;;
45366;SDS011;31100;55.848;37.636;2023-03-08T01:28:55;21.67;;;12.88;;
45366;SDS011;31100;55.848;37.636;2023-03-08T01:31:22;22.25;;;11.00;;
45366;SDS011;31100;55.848;37.636;2023-03-08T01:33:52;22.48;;;12.38;;
45366;SDS011;31100;55.848;37.636;2023-03-08T01:36:19;20.30;;;11.98;;
45366;SDS011;31100;55.848;37.636;2023-03-08T01:38:46;22.17;;;11.85;;
45366;SDS011;31100;55.848;37.636;2023-03-08T01:41:13;25.15;;;12.75;;
45366;SDS011;31100;55.848;37.636;2023-03-08T01:43:41;23.02;;;12.88;;
45366;SDS011;31100;55.848;37.636;2023-03-08T01:48:44;23.75;;;13.60;;
45366;SDS011;31100;55.848;37.636;2023-03-08T01:53:56;24.20;;;12.10;;
45366;SDS011;31100;55.848;37.636;2023-03-08T01:56:23;32.13;;;15.75;;
45366;SDS011;31100;55.848;37.636;2023-03-08T01:58:50;26.92;;;14.35;;
45366;SDS011;31100;55.848;37.636;2023-03-08T02:01:16;29.73;;;15.88;;
45366;SDS011;31100;55.848;37.636;2023-03-08T02:03:45;30.98;;;15.55;;
45366;SDS011;31100;55.848;37.636;2023-03-08T02:06:12;28.48;;;16.15;;
45366;SDS011;31100;55.848;37.636;2023-03-08T02:08:39;26.88;;;15.13;;
45366;SDS011;31100;55.848;37.636;2023-03-08T02:11:06;22.45;;;14.20;;
45366;SDS011;31100;55.848;37.636;2023-03-08T02:13:32;27.75;;;15.45;;
45366;SDS011;31100;55.848;37.636;2023-03-08T02:15:57;27.25;;;16.77;;
45366;SDS011;31100;55.848;37.636;2023-03-08T02:18:24;27.13;;;15.73;;
45366;SDS011;31100;55.848;37.636;2023-03-08T02:20:49;27.38;;;16.13;;
45366;SDS011;31100;55.848;37.636;2023-03-08T02:23:16;27.70;;;15.40;;
45366;SDS011;31100;55.848;37.636;2023-03-08T02:25:52;29.33;;;15.27;;
45366;SDS011;31100;55.848;37.636;2023-03-08T02:28:22;27.70;;;15.43;;
45366;SDS011;31100;55.848;37.636;2023-03-08T02:30:49;25.65;;;15.18;;
45366;SDS011;31100;55.848;37.636;2023-03-08T02:33:15;29.95;;;15.38;;
45366;SDS011;31100;55.848;37.636;2023-03-08T02:35:41;33.00;;;17.17;;
45366;SDS011;31100;55.848;37.636;2023-03-08T02:38:07;32.30;;;15.88;;
45366;SDS011;31100;55.848;37.636;2023-03-08T02:40:34;30.02;;;15.80;;
45366;SDS011;31100;55.848;37.636;2023-03-08T02:43:00;27.38;;;15.90;;
45366;SDS011;31100;55.848;37.636;2023-03-08T02:45:26;27.17;;;15.05;;
45366;SDS011;31100;55.848;37.636;2023-03-08T02:47:51;32.28;;;15.55;;
45366;SDS011;31100;55.848;37.636;2023-03-08T02:50:17;28.38;;;16.40;;
45366;SDS011;31100;55.848;37.636;2023-03-08T02:52:42;26.25;;;15.63;;
45366;SDS011;31100;55.848;37.636;2023-03-08T02:55:08;33.50;;;17.58;;
45366;SDS011;31100;55.848;37.636;2023-03-08T02:57:34;30.50;;;17.75;;
45366;SDS011;31100;55.848;37.636;2023-03-08T02:59:59;33.80;;;17.58;;
45366;SDS011;31100;55.848;37.636;2023-03-08T03:02:25;29.27;;;16.35;;
45366;SDS011;31100;55.848;37.636;2023-03-08T03:04:51;32.17;;;16.88;;
45366;SDS011;31100;55.848;37.636;2023-03-08T03:07:16;31.08;;;17.25;;
45366;SDS011;31100;55.848;37.636;2023-03-08T03:09:42;28.48;;;16.98;;
45366;SDS011;31100;55.848;37.636;2023-03-08T03:12:07;31.55;;;16.67;;
45366;SDS011;31100;55.848;37.636;2023-03-08T03:14:33;35.08;;;17.38;;
45366;SDS011;31100;55.848;37.636;2023-03-08T03:16:58;31.58;;;17.45;;
45366;SDS011;31100;55.848;37.636;2023-03-08T03:19:24;29.70;;;16.83;;
45366;SDS011;31100;55.848;37.636;2023-03-08T03:21:49;35.70;;;16.75;;
45366;SDS011;31100;55.848;37.636;2023-03-08T03:24:15;28.08;;;15.23;;
45366;SDS011;31100;55.848;37.636;2023-03-08T03:26:40;29.58;;;16.42;;
45366;SDS011;31100;55.848;37.636;2023-03-08T03:29:06;32.17;;;16.65;;
45366;SDS011;31100;55.848;37.636;2023-03-08T03:31:31;29.67;;;16.52;;
45366;SDS011;31100;55.848;37.636;2023-03-08T03:33:58;32.28;;;16.98;;
45366;SDS011;31100;55.848;37.636;2023-03-08T03:36:25;28.77;;;16.75;;
45366;SDS011;31100;55.848;37.636;2023-03-08T03:38:50;32.05;;;18.17;;
45366;SDS011;31100;55.848;37.636;2023-03-08T03:41:17;33.35;;;17.52;;
45366;SDS011;31100;55.848;37.636;2023-03-08T03:43:44;31.40;;;17.40;;
45366;SDS011;31100;55.848;37.636;2023-03-08T03:46:10;34.33;;;17.77;;
45366;SDS011;31100;55.848;37.636;2023-03-08T03:48:37;33.80;;;18.38;;
45366;SDS011;31100;55.848;37.636;2023-03-08T03:51:04;33.72;;;19.15;;
45366;SDS011;31100;55.848;37.636;2023-03-08T03:53:32;31.55;;;18.50;;
45366;SDS011;31100;55.848;37.636;2023-03-08T03:56:09;34.65;;;18.65;;
45366;SDS011;31100;55.848;37.636;2023-03-08T03:58:37;35.25;;;18.65;;
45366;SDS011;31100;55.848;37.636;2023-03-08T04:01:07;32.13;;;17.63;;
45366;SDS011;31100;55.848;37.636;2023-03-08T04:03:33;31.67;;;17.17;;
45366;SDS011;31100;55.848;37.636;2023-03-08T04:06:08;44.97;;;19.77;;
45366;SDS011;31100;55.848;37.636;2023-03-08T04:08:37;31.95;;;17.38;;
45366;SDS011;31100;55.848;37.636;2023-03-08T04:11:09;37.78;;;18.27;;
45366;SDS011;31100;55.848;37.636;2023-03-08T04:13:39;31.63;;;18.80;;
45366;SDS011;31100;55.848;37.636;2023-03-08T04:16:11;33.08;;;19.48;;
45366;SDS011;31100;55.848;37.636;2023-03-08T04:18:38;33.50;;;18.98;;
45366;SDS011;31100;55.848;37.636;2023-03-08T04:21:03;33.80;;;19.40;;
45366;SDS011;31100;55.848;37.636;2023-03-08T04:23:29;33.50;;;19.38;;
45366;SDS011;31100;55.848;37.636;2023-03-08T04:25:55;36.60;;;18.13;;
45366;SDS011;31100;55.848;37.636;2023-03-08T04:28:20;35.40;;;17.35;;
45366;SDS011;31100;55.848;37.636;2023-03-08T04:30:46;36.80;;;18.92;;
45366;SDS011;31100;55.848;37.636;2023-03-08T04:33:11;38.72;;;19.17;;
45366;SDS011;31100;55.848;37.636;2023-03-08T04:35:37;37.33;;;20.17;;
45366;SDS011;31100;55.848;37.636;2023-03-08T04:38:02;34.50;;;16.80;;
45366;SDS011;31100;55.848;37.636;2023-03-08T04:40:28;38.17;;;19.30;;
45366;SDS011;31100;55.848;37.636;2023-03-08T04:42:54;38.28;;;17.85;;
45366;SDS011;31100;55.848;37.636;2023-03-08T04:45:20;38.65;;;18.48;;
45366;SDS011;31100;55.848;37.636;2023-03-08T04:47:45;46.53;;;19.50;;
45366;SDS011;31100;55.848;37.636;2023-03-08T04:50:11;42.33;;;20.05;;
45366;SDS011;31100;55.848;37.636;2023-03-08T04:52:37;48.17;;;19.27;;
45366;SDS011;31100;55.848;37.636;2023-03-08T04:55:02;42.65;;;17.35;;
45366;SDS011;31100;55.848;37.636;2023-03-08T04:57:28;58.20;;;17.75;;
45366;SDS011;31100;55.848;37.636;2023-03-08T04:59:54;60.55;;;16.58;;
45366;SDS011;31100;55.848;37.636;2023-03-08T05:02:20;50.47;;;17.90;;
45366;SDS011;31100;55.848;37.636;2023-03-08T05:04:47;51.17;;;23.55;;
45366;SDS011;31100;55.848;37.636;2023-03-08T05:07:12;53.13;;;22.23;;
45366;SDS011;31100;55.848;37.636;2023-03-08T05:09:38;44.10;;;17.88;;
45366;SDS011;31100;55.848;37.636;2023-03-08T05:12:03;51.90;;;18.52;;
45366;SDS011;31100;55.848;37.636;2023-03-08T05:14:29;47.33;;;21.25;;
45366;SDS011;31100;55.848;37.636;2023-03-08T05:16:55;51.22;;;18.67;;
45366;SDS011;31100;55.848;37.636;2023-03-08T05:19:21;44.33;;;18.67;;
45366;SDS011;31100;55.848;37.636;2023-03-08T05:21:46;47.08;;;18.55;;
45366;SDS011;31100;55.848;37.636;2023-03-08T05:24:12;47.88;;;18.50;;
45366;SDS011;31100;55.848;37.636;2023-03-08T05:26:38;52.25;;;21.17;;
45366;SDS011;31100;55.848;37.636;2023-03-08T05:29:03;48.47;;;19.63;;
45366;SDS011;31100;55.848;37.636;2023-03-08T05:31:31;40.63;;;18.73;;
45366;SDS011;31100;55.848;37.636;2023-03-08T05:33:57;42.25;;;18.90;;
45366;SDS011;31100;55.848;37.636;2023-03-08T05:36:22;36.13;;;17.42;;
45366;SDS011;31100;55.848;37.636;2023-03-08T05:38:52;37.83;;;18.17;;
45366;SDS011;31100;55.848;37.636;2023-03-08T05:41:19;30.00;;;14.75;;
45366;SDS011;31100;55.848;37.636;2023-03-08T05:43:44;35.95;;;16.45;;
45366;SDS011;31100;55.848;37.636;2023-03-08T05:46:11;32.65;;;16.15;;
45366;SDS011;31100;55.848;37.636;2023-03-08T05:48:41;31.67;;;15.32;;
45366;SDS011;31100;55.848;37.636;2023-03-08T05:51:11;31.77;;;15.98;;
45366;SDS011;31100;55.848;37.636;2023-03-08T05:56:09;30.02;;;14.85;;
45366;SDS011;31100;55.848;37.636;2023-03-08T05:58:36;31.75;;;15.57;;
45366;SDS011;31100;55.848;37.636;2023-03-08T06:01:12;29.33;;;15.85;;
45366;SDS011;31100;55.848;37.636;2023-03-08T06:03:43;34.15;;;15.43;;
45366;SDS011;31100;55.848;37.636;2023-03-08T06:06:09;31.52;;;15.10;;
45366;SDS011;31100;55.848;37.636;2023-03-08T06:08:35;30.65;;;15.70;;
45366;SDS011;31100;55.848;37.636;2023-03-08T06:11:01;30.05;;;16.98;;
45366;SDS011;31100;55.848;37.636;2023-03-08T06:13:26;31.58;;;16.90;;
45366;SDS011;31100;55.848;37.636;2023-03-08T06:15:53;29.05;;;14.50;;
45366;SDS011;31100;55.848;37.636;2023-03-08T06:18:19;26.92;;;15.75;;
45366;SDS011;31100;55.848;37.636;2023-03-08T06:20:53;25.85;;;11.95;;
45366;SDS011;31100;55.848;37.636;2023-03-08T06:23:22;26.42;;;14.30;;
45366;SDS011;31100;55.848;37.636;2023-03-08T06:25:47;23.80;;;13.43;;
45366;SDS011;31100;55.848;37.636;2023-03-08T06:28:13;23.98;;;13.57;;
45366;SDS011;31100;55.848;37.636;2023-03-08T06:30:39;22.73;;;13.43;;
45366;SDS011;31100;55.848;37.636;2023-03-08T06:33:04;24.90;;;13.95;;
45366;SDS011;31100;55.848;37.636;2023-03-08T06:35:30;29.48;;;13.80;;
45366;SDS011;31100;55.848;37.636;2023-03-08T06:37:55;23.58;;;13.15;;
45366;SDS011;31100;55.848;37.636;2023-03-08T06:40:21;23.42;;;13.35;;
45366;SDS011;31100;55.848;37.636;2023-03-08T06:42:46;28.85;;;13.60;;
45366;SDS011;31100;55.848;37.636;2023-03-08T06:45:12;25.88;;;15.18;;
45366;SDS011;31100;55.848;37.636;2023-03-08T06:47:38;23.50;;;14.60;;
45366;SDS011;31100;55.848;37.636;2023-03-08T06:50:03;24.02;;;13.07;;
45366;SDS011;31100;55.848;37.636;2023-03-08T06:52:29;26.42;;;14.85;;
45366;SDS011;31100;55.848;37.636;2023-03-08T06:55:01;24.17;;;15.10;;
45366;SDS011;31100;55.848;37.636;2023-03-08T06:57:31;29.63;;;17.40;;
45366;SDS011;31100;55.848;37.636;2023-03-08T06:59:56;33.42;;;17.75;;
45366;SDS011;31100;55.848;37.636;2023-03-08T07:02:22;40.33;;;20.23;;
45366;SDS011;31100;55.848;37.636;2023-03-08T07:04:47;39.22;;;20.23;;
45366;SDS011;31100;55.848;37.636;2023-03-08T07:07:13;43.10;;;21.83;;
45366;SDS011;31100;55.848;37.636;2023-03-08T07:09:38;36.58;;;20.85;;
45366;SDS011;31100;55.848;37.636;2023-03-08T07:12:04;34.70;;;19.50;;
45366;SDS011;31100;55.848;37.636;2023-03-08T07:14:30;31.08;;;17.90;;
45366;SDS011;31100;55.848;37.636;2023-03-08T07:16:58;28.92;;;16.65;;
45366;SDS011;31100;55.848;37.636;2023-03-08T07:19:23;26.48;;;16.70;;
45366;SDS011;31100;55.848;37.636;2023-03-08T07:21:49;27.88;;;16.20;;
45366;SDS011;31100;55.848;37.636;2023-03-08T07:24:14;28.95;;;16.42;;
45366;SDS011;31100;55.848;37.636;2023-03-08T07:26:40;28.75;;;15.85;;
45366;SDS011;31100;55.848;37.636;2023-03-08T07:29:06;30.17;;;15.88;;
45366;SDS011;31100;55.848;37.636;2023-03-08T07:31:34;25.92;;;14.77;;
45366;SDS011;31100;55.848;37.636;2023-03-08T07:34:01;29.55;;;16.85;;
45366;SDS011;31100;55.848;37.636;2023-03-08T07:36:27;25.67;;;14.65;;
45366;SDS011;31100;55.848;37.636;2023-03-08T07:38:53;26.45;;;15.07;;
45366;SDS011;31100;55.848;37.636;2023-03-08T07:41:18;33.97;;;16.83;;
45366;SDS011;31100;55.848;37.636;2023-03-08T07:43:44;25.83;;;15.05;;
45366;SDS011;31100;55.848;37.636;2023-03-08T07:46:09;25.83;;;14.55;;
45366;SDS011;31100;55.848;37.636;2023-03-08T07:48:35;27.45;;;15.35;;
45366;SDS011;31100;55.848;37.636;2023-03-08T07:51:04;29.10;;;15.30;;
45366;SDS011;31100;55.848;37.636;2023-03-08T07:53:33;26.00;;;14.57;;
45366;SDS011;31100;55.848;37.636;2023-03-08T07:55:59;24.65;;;14.35;;
45366;SDS011;31100;55.848;37.636;2023-03-08T07:58:25;25.58;;;14.27;;
45366;SDS011;31100;55.848;37.636;2023-03-08T08:00:51;20.52;;;11.50;;
45366;SDS011;31100;55.848;37.636;2023-03-08T08:03:16;23.92;;;13.07;;
45366;SDS011;31100;55.848;37.636;2023-03-08T08:05:45;21.13;;;13.52;;
45366;SDS011;31100;55.848;37.636;2023-03-08T08:08:10;20.70;;;11.57;;
45366;SDS011;31100;55.848;37.636;2023-03-08T08:10:40;18.40;;;10.35;;
45366;SDS011;31100;55.848;37.636;2023-03-08T08:13:06;14.10;;;8.95;;
45366;SDS011;31100;55.848;37.636;2023-03-08T08:15:32;16.10;;;8.13;;
45366;SDS011;31100;55.848;37.636;2023-03-08T08:17:58;15.63;;;8.63;;
45366;SDS011;31100;55.848;37.636;2023-03-08T08:20:24;16.08;;;7.78;;
45366;SDS011;31100;55.848;37.636;2023-03-08T08:22:51;14.55;;;8.23;;
45366;SDS011;31100;55.848;37.636;2023-03-08T08:25:19;16.10;;;8.30;;
45366;SDS011;31100;55.848;37.636;2023-03-08T08:27:45;13.38;;;8.63;;
45366;SDS011;31100;55.848;37.636;2023-03-08T08:30:11;14.35;;;9.23;;
45366;SDS011;31100;55.848;37.636;2023-03-08T08:32:38;15.00;;;8.73;;
45366;SDS011;31100;55.848;37.636;2023-03-08T08:35:04;18.52;;;9.48;;
45366;SDS011;31100;55.848;37.636;2023-03-08T08:37:31;13.63;;;9.65;;
45366;SDS011;31100;55.848;37.636;2023-03-08T08:39:57;16.55;;;9.30;;
45366;SDS011;31100;55.848;37.636;2023-03-08T08:42:23;19.90;;;11.00;;
45366;SDS011;31100;55.848;37.636;2023-03-08T08:44:49;15.10;;;9.07;;
45366;SDS011;31100;55.848;37.636;2023-03-08T08:47:14;15.73;;;8.98;;
45366;SDS011;31100;55.848;37.636;2023-03-08T08:49:40;15.02;;;9.63;;
45366;SDS011;31100;55.848;37.636;2023-03-08T08:52:05;16.05;;;9.07;;
45366;SDS011;31100;55.848;37.636;2023-03-08T08:54:31;12.93;;;8.38;;
45366;SDS011;31100;55.848;37.636;2023-03-08T08:56:58;11.93;;;8.35;;
45366;SDS011;31100;55.848;37.636;2023-03-08T08:59:24;13.15;;;8.43;;
45366;SDS011;31100;55.848;37.636;2023-03-08T09:01:49;15.00;;;8.90;;
45366;SDS011;31100;55.848;37.636;2023-03-08T09:04:16;12.25;;;7.97;;
45366;SDS011;31100;55.848;37.636;2023-03-08T09:06:43;12.13;;;8.13;;
45366;SDS011;31100;55.848;37.636;2023-03-08T09:09:09;12.05;;;8.15;;
45366;SDS011;31100;55.848;37.636;2023-03-08T09:11:34;11.45;;;8.30;;
45366;SDS011;31100;55.848;37.636;2023-03-08T09:14:00;13.90;;;8.27;;
45366;SDS011;31100;55.848;37.636;2023-03-08T09:16:27;13.38;;;8.57;;
45366;SDS011;31100;55.848;37.636;2023-03-08T09:18:55;11.20;;;7.50;;
45366;SDS011;31100;55.848;37.636;2023-03-08T09:21:22;11.25;;;7.90;;
45366;SDS011;31100;55.848;37.636;2023-03-08T09:23:49;11.38;;;7.25;;
45366;SDS011;31100;55.848;37.636;2023-03-08T09:26:15;10.73;;;7.45;;
45366;SDS011;31100;55.848;37.636;2023-03-08T09:28:40;12.65;;;8.05;;
45366;SDS011;31100;55.848;37.636;2023-03-08T09:31:07;14.68;;;8.60;;
45366;SDS011;31100;55.848;37.636;2023-03-08T09:33:40;11.77;;;7.88;;
45366;SDS011;31100;55.848;37.636;2023-03-08T09:36:07;10.73;;;7.68;;
45366;SDS011;31100;55.848;37.636;2023-03-08T09:38:33;11.82;;;7.20;;
45366;SDS011;31100;55.848;37.636;2023-03-08T09:43:44;11.00;;;7.95;;
45366;SDS011;31100;55.848;37.636;2023-03-08T09:46:15;12.85;;;8.73;;
45366;SDS011;31100;55.848;37.636;2023-03-08T09:48:47;12.18;;;7.93;;
45366;SDS011;31100;55.848;37.636;2023-03-08T09:51:15;11.07;;;7.78;;
45366;SDS011;31100;55.848;37.636;2023-03-08T09:53:58;11.23;;;7.70;;
45366;SDS011;31100;55.848;37.636;2023-03-08T09:56:31;11.93;;;8.57;;
45366;SDS011;31100;55.848;37.636;2023-03-08T09:59:10;12.80;;;8.70;;
45366;SDS011;31100;55.848;37.636;2023-03-08T10:01:44;12.68;;;8.27;;
45366;SDS011;31100;55.848;37.636;2023-03-08T10:04:22;12.48;;;8.82;;
45366;SDS011;31100;55.848;37.636;2023-03-08T10:09:35;10.52;;;7.45;;
45366;SDS011;31100;55.848;37.636;2023-03-08T10:12:25;11.75;;;8.27;;
45366;SDS011;31100;55.848;37.636;2023-03-08T10:15:37;12.75;;;8.38;;
45366;SDS011;31100;55.848;37.636;2023-03-08T10:23:28;14.27;;;8.73;;
45366;SDS011;31100;55.848;37.636;2023-03-08T10:25:47;12.23;;;7.93;;
45366;SDS011;31100;55.848;37.636;2023-03-08T10:28:14;12.43;;;8.02;;
45366;SDS011;31100;55.848;37.636;2023-03-08T10:30:44;14.98;;;9.75;;
45366;SDS011;31100;55.848;37.636;2023-03-08T10:33:24;12.82;;;9.00;;
45366;SDS011;31100;55.848;37.636;2023-03-08T10:36:07;13.98;;;8.75;;
45366;SDS011;31100;55.848;37.636;2023-03-08T10:38:41;16.67;;;9.20;;
45366;SDS011;31100;55.848;37.636;2023-03-08T10:43:39;14.93;;;9.55;;
45366;SDS011;31100;55.848;37.636;2023-03-08T10:46:11;14.35;;;9.50;;
45366;SDS011;31100;55.848;37.636;2023-03-08T10:48:38;15.90;;;9.32;;
45366;SDS011;31100;55.848;37.636;2023-03-08T10:51:04;19.25;;;10.65;;
45366;SDS011;31100;55.848;37.636;2023-03-08T10:53:31;15.52;;;10.00;;
45366;SDS011;31100;55.848;37.636;2023-03-08T10:55:58;14.60;;;9.50;;
45366;SDS011;31100;55.848;37.636;2023-03-08T10:58:26;16.77;;;10.65;;
45366;SDS011;31100;55.848;37.636;2023-03-08T11:00:56;14.35;;;9.38;;
45366;SDS011;31100;55.848;37.636;2023-03-08T11:03:24;14.23;;;8.43;;
45366;SDS011;31100;55.848;37.636;2023-03-08T11:08:27;15.25;;;10.77;;
45366;SDS011;31100;55.848;37.636;2023-03-08T11:11:09;16.73;;;10.10;;
45366;SDS011;31100;55.848;37.636;2023-03-08T11:13:43;15.05;;;8.88;;
45366;SDS011;31100;55.848;37.636;2023-03-08T11:19:02;15.65;;;10.73;;
45366;SDS011;31100;55.848;37.636;2023-03-08T11:26:49;15.77;;;10.63;;
45366;SDS011;31100;55.848;37.636;2023-03-08T11:29:31;16.95;;;11.13;;
45366;SDS011;31100;55.848;37.636;2023-03-08T11:35:18;17.73;;;10.68;;
45366;SDS011;31100;55.848;37.636;2023-03-08T11:40:25;17.88;;;10.73;;
45366;SDS011;31100;55.848;37.636;2023-03-08T11:46:00;15.43;;;10.75;;
45366;SDS011;31100;55.848;37.636;2023-03-08T11:51:04;17.23;;;10.43;;
45366;SDS011;31100;55.848;37.636;2023-03-08T11:59:01;19.92;;;11.40;;
45366;SDS011;31100;55.848;37.636;2023-03-08T12:01:34;15.90;;;10.65;;
45366;SDS011;31100;55.848;37.636;2023-03-08T12:04:08;18.30;;;11.48;;
45366;SDS011;31100;55.848;37.636;2023-03-08T12:06:42;19.75;;;11.25;;
45366;SDS011;31100;55.848;37.636;2023-03-08T12:12:07;17.92;;;11.57;;
45366;SDS011;31100;55.848;37.636;2023-03-08T12:17:26;17.90;;;12.07;;
45366;SDS011;31100;55.848;37.636;2023-03-08T12:19:55;18.38;;;11.25;;
45366;SDS011;31100;55.848;37.636;2023-03-08T12:27:21;19.17;;;11.45;;
45366;SDS011;31100;55.848;37.636;2023-03-08T12:32:38;19.85;;;12.02;;
45366;SDS011;31100;55.848;37.636;2023-03-08T12:35:06;16.67;;;11.43;;
45366;SDS011;31100;55.848;37.636;2023-03-08T12:37:53;17.92;;;11.30;;
45366;SDS011;31100;55.848;37.636;2023-03-08T12:40:28;19.20;;;12.60;;
45366;SDS011;31100;55.848;37.636;2023-03-08T12:43:02;18.73;;;11.05;;
45366;SDS011;31100;55.848;37.636;2023-03-08T12:45:38;16.77;;;11.20;;
45366;SDS011;31100;55.848;37.636;2023-03-08T12:50:41;18.25;;;12.57;;
45366;SDS011;31100;55.848;37.636;2023-03-08T12:53:25;18.42;;;12.20;;
45366;SDS011;31100;55.848;37.636;2023-03-08T12:56:47;17.70;;;11.68;;
45366;SDS011;31100;55.848;37.636;2023-03-08T12:59:24;22.13;;;12.75;;
45366;SDS011;31100;55.848;37.636;2023-03-08T13:04:34;22.85;;;13.45;;
45366;SDS011;31100;55.848;37.636;2023-03-08T13:12:35;18.05;;;10.98;;
45366;SDS011;31100;55.848;37.636;2023-03-08T13:17:50;19.52;;;12.90;;
45366;SDS011;31100;55.848;37.636;2023-03-08T13:20:24;20.02;;;12.15;;
45366;SDS011;31100;55.848;37.636;2023-03-08T13:28:17;17.88;;;11.00;;
45366;SDS011;31100;55.848;37.636;2023-03-08T13:30:49;20.73;;;12.98;;
45366;SDS011;31100;55.848;37.636;2023-03-08T13:33:26;23.55;;;13.93;;
45366;SDS011;31100;55.848;37.636;2023-03-08T13:35:55;19.92;;;12.52;;
45366;SDS011;31100;55.848;37.636;2023-03-08T13:38:22;22.17;;;14.20;;
45366;SDS011;31100;55.848;37.636;2023-03-08T13:40:53;22.05;;;12.57;;
45366;SDS011;31100;55.848;37.636;2023-03-08T13:43:20;22.75;;;12.48;;
45366;SDS011;31100;55.848;37.636;2023-03-08T13:45:51;20.15;;;11.75;;
45366;SDS011;31100;55.848;37.636;2023-03-08T13:48:18;21.00;;;13.02;;
45366;SDS011;31100;55.848;37.636;2023-03-08T13:50:45;21.85;;;13.73;;
45366;SDS011;31100;55.848;37.636;2023-03-08T13:53:19;21.98;;;12.55;;
45366;SDS011;31100;55.848;37.636;2023-03-08T13:55:47;28.30;;;13.95;;
45366;SDS011;31100;55.848;37.636;2023-03-08T14:01:02;21.38;;;13.00;;
45366;SDS011;31100;55.848;37.636;2023-03-08T14:03:38;22.17;;;12.93;;
45366;SDS011;31100;55.848;37.636;2023-03-08T14:06:25;22.73;;;13.93;;
45366;SDS011;31100;55.848;37.636;2023-03-08T14:08:58;20.75;;;13.05;;
45366;SDS011;31100;55.848;37.636;2023-03-08T14:11:33;21.38;;;12.93;;
45366;SDS011;31100;55.848;37.636;2023-03-08T14:14:00;21.65;;;12.90;;
45366;SDS011;31100;55.848;37.636;2023-03-08T14:16:37;21.63;;;12.93;;
45366;SDS011;31100;55.848;37.636;2023-03-08T14:21:51;20.35;;;12.90;;
45366;SDS011;31100;55.848;37.636;2023-03-08T14:24:20;21.50;;;13.07;;
45366;SDS011;31100;55.848;37.636;2023-03-08T14:27:06;21.55;;;13.30;;
45366;SDS011;31100;55.848;37.636;2023-03-08T14:30:00;18.80;;;10.70;;
45366;SDS011;31100;55.848;37.636;2023-03-08T14:32:30;22.48;;;13.40;;
45366;SDS011;31100;55.848;37.636;2023-03-08T14:35:31;30.52;;;14.13;;
45366;SDS011;31100;55.848;37.636;2023-03-08T14:38:01;20.98;;;11.88;;
45366;SDS011;31100;55.848;37.636;2023-03-08T14:40:32;21.20;;;13.00;;
45366;SDS011;31100;55.848;37.636;2023-03-08T14:43:03;23.35;;;14.00;;
45366;SDS011;31100;55.848;37.636;2023-03-08T14:45:40;21.33;;;12.30;;
45366;SDS011;31100;55.848;37.636;2023-03-08T14:48:19;24.63;;;13.73;;
45366;SDS011;31100;55.848;37.636;2023-03-08T14:50:51;21.48;;;13.93;;
45366;SDS011;31100;55.848;37.636;2023-03-08T14:53:28;23.08;;;13.73;;
45366;SDS011;31100;55.848;37.636;2023-03-08T14:56:04;22.85;;;12.63;;
45366;SDS011;31100;55.848;37.636;2023-03-08T14:58:32;22.20;;;14.55;;
45366;SDS011;31100;55.848;37.636;2023-03-08T15:01:00;18.38;;;11.52;;
45366;SDS011;31100;55.848;37.636;2023-03-08T15:03:27;23.27;;;13.20;;
45366;SDS011;31100;55.848;37.636;2023-03-08T15:05:54;27.13;;;14.25;;
45366;SDS011;31100;55.848;37.636;2023-03-08T15:08:20;22.90;;;14.65;;
45366;SDS011;31100;55.848;37.636;2023-03-08T15:10:46;25.58;;;15.38;;
45366;SDS011;31100;55.848;37.636;2023-03-08T15:13:14;25.80;;;14.70;;
45366;SDS011;31100;55.848;37.636;2023-03-08T15:15:43;23.13;;;13.90;;
45366;SDS011;31100;55.848;37.636;2023-03-08T15:18:09;28.85;;;15.65;;
45366;SDS011;31100;55.848;37.636;2023-03-08T15:20:39;25.77;;;15.40;;
45366;SDS011;31100;55.848;37.636;2023-03-08T15:23:10;22.10;;;13.13;;
45366;SDS011;31100;55.848;37.636;2023-03-08T15:25:49;29.92;;;14.60;;
45366;SDS011;31100;55.848;37.636;2023-03-08T15:28:16;29.38;;;15.80;;
45366;SDS011;31100;55.848;37.636;2023-03-08T15:30:43;25.05;;;15.55;;
45366;SDS011;31100;55.848;37.636;2023-03-08T15:33:08;27.38;;;15.73;;
45366;SDS011;31100;55.848;37.636;2023-03-08T15:35:34;31.17;;;17.10;;
45366;SDS011;31100;55.848;37.636;2023-03-08T15:38:00;31.33;;;16.92;;
45366;SDS011;31100;55.848;37.636;2023-03-08T15:40:27;28.25;;;17.15;;
45366;SDS011;31100;55.848;37.636;2023-03-08T15:42:53;28.05;;;16.67;;
45366;SDS011;31100;55.848;37.636;2023-03-08T15:45:39;28.15;;;16.33;;